Time;durP1;ratioP1;P1;durP2;ratioP2;P2;SDS_P1;SDS_P2;PMS_P1;PMS_P2;Temp;Humidity;BMP_temperature;BMP_pressure;BME280_temperature;BME280_humidity;BME280_pressure;Samples;Min_cycle;Max_cycle;Signal;HPM_P1;HPM_P2
2024/04/11 00:00:36;;;;;;;8.52;2.42;;;12.50;99.90;;;;;;5347422;26;20319;-67
2024/04/11 00:03:01;;;;;;;17.88;2.50;;;12.50;99.90;;;;;;5339811;26;20241;-67
2024/04/11 00:05:27;;;;;;;10.05;2.53;;;12.50;99.90;;;;;;5343589;26;20276;-69
2024/04/11 00:07:53;;;;;;;9.93;2.47;;;12.40;99.90;;;;;;5401334;26;20642;-68
2024/04/11 00:10:19;;;;;;;9.35;2.50;;;12.40;99.90;;;;;;5395010;26;20273;-68
2024/04/11 00:12:46;;;;;;;9.40;2.80;;;12.40;99.90;;;;;;5349696;26;20269;-67
2024/04/11 00:15:11;;;;;;;5.75;2.22;;;12.50;99.90;;;;;;5341216;26;20238;-68
2024/04/11 00:17:37;;;;;;;10.38;2.47;;;12.50;99.90;;;;;;5344194;26;20284;-67
2024/04/11 00:20:03;;;;;;;8.52;2.47;;;12.50;99.90;;;;;;5349199;26;20233;-68
2024/04/11 00:22:29;;;;;;;10.73;2.92;;;12.50;99.90;;;;;;5342109;26;20246;-69
2024/04/11 00:24:55;;;;;;;16.20;2.60;;;12.50;99.90;;;;;;5345226;26;20273;-69
2024/04/11 00:27:22;;;;;;;6.78;2.20;;;12.50;99.90;;;;;;5340627;26;20238;-68
2024/04/11 00:29:48;;;;;;;10.65;2.40;;;12.50;99.90;;;;;;5397475;26;20234;-68
2024/04/11 00:32:13;;;;;;;13.70;2.78;;;12.50;99.90;;;;;;5342699;26;20301;-68
2024/04/11 00:34:43;;;;;;;8.38;2.38;;;12.50;99.90;;;;;;5344004;26;20281;-68
2024/04/11 00:37:11;;;;;;;7.80;2.50;;;12.50;99.90;;;;;;5348189;26;20722;-68
2024/04/11 00:39:37;;;;;;;8.20;2.50;;;12.60;99.90;;;;;;5343698;26;20799;-68
2024/04/11 00:42:04;;;;;;;10.57;2.38;;;12.60;99.90;;;;;;5341237;26;20246;-68
2024/04/11 00:44:32;;;;;;;10.00;2.42;;;12.60;99.90;;;;;;5344572;26;20283;-69
2024/04/11 00:46:58;;;;;;;9.95;2.58;;;12.60;99.90;;;;;;5341068;26;20266;-69
2024/04/11 00:49:24;;;;;;;8.98;2.28;;;12.60;99.90;;;;;;5342733;26;20335;-68
2024/04/11 00:51:50;;;;;;;8.50;2.60;;;12.60;99.90;;;;;;5402208;26;20261;-69
2024/04/11 00:54:19;;;;;;;10.65;2.53;;;12.60;99.90;;;;;;5345684;26;20240;-68
2024/04/11 00:56:46;;;;;;;9.43;2.28;;;12.60;99.90;;;;;;5341176;26;20719;-68
2024/04/11 00:59:14;;;;;;;7.75;2.13;;;12.60;99.90;;;;;;5348733;26;20238;-68
2024/04/11 01:01:41;;;;;;;15.77;2.58;;;12.60;99.90;;;;;;5342052;26;20283;-67
2024/04/11 01:04:07;;;;;;;9.65;2.35;;;12.60;99.90;;;;;;5340544;26;20230;-66
2024/04/11 01:07:08;;;;;;;4.63;2.00;;;12.60;99.90;;;;;;5370173;26;20710;-67
2024/04/11 01:09:46;;;;;;;9.52;2.42;;;12.60;99.90;;;;;;5348325;26;20628;-67
2024/04/11 01:12:16;;;;;;;7.18;2.05;;;12.70;99.90;;;;;;5341248;26;20625;-67
2024/04/11 01:14:47;;;;;;;8.15;2.20;;;12.70;99.90;;;;;;5401196;26;20339;-67
2024/04/11 01:17:13;;;;;;;10.80;2.38;;;12.70;99.90;;;;;;5340440;26;20230;-67
2024/04/11 01:19:44;;;;;;;10.23;2.00;;;12.70;99.90;;;;;;5342937;26;20239;-68
2024/04/11 01:22:10;;;;;;;5.43;1.90;;;12.70;99.90;;;;;;5341296;26;20489;-68
2024/04/11 01:24:40;;;;;;;9.35;2.20;;;12.80;99.90;;;;;;5346126;26;20280;-68
2024/04/11 01:27:10;;;;;;;7.55;2.03;;;12.70;99.90;;;;;;5346123;26;20242;-68
2024/04/11 01:29:38;;;;;;;8.02;2.17;;;12.70;99.90;;;;;;5352132;26;20268;-68
2024/04/11 01:32:05;;;;;;;6.05;2.10;;;12.70;99.90;;;;;;5342975;26;20316;-68
2024/04/11 01:34:31;;;;;;;9.68;2.15;;;12.70;99.90;;;;;;5343759;26;20280;-67
2024/04/11 01:37:00;;;;;;;13.05;2.10;;;12.70;99.90;;;;;;5345296;26;20237;-68
2024/04/11 01:39:26;;;;;;;9.18;2.03;;;12.70;99.90;;;;;;5352498;26;20672;-67
2024/04/11 01:41:53;;;;;;;8.68;2.47;;;12.70;99.90;;;;;;5345284;26;20293;-70
2024/04/11 01:44:19;;;;;;;10.40;1.98;;;12.70;99.90;;;;;;5345770;26;20234;-69
2024/04/11 01:46:45;;;;;;;8.05;2.20;;;12.70;99.90;;;;;;5348373;26;20272;-67
2024/04/11 01:49:11;;;;;;;9.07;2.13;;;12.70;99.90;;;;;;5348805;26;20672;-68
2024/04/11 01:51:37;;;;;;;8.65;2.10;;;12.70;99.90;;;;;;5347770;26;20713;-68
2024/04/11 01:54:05;;;;;;;8.23;2.30;;;12.70;99.90;;;;;;5351998;26;20293;-66
2024/04/11 01:56:34;;;;;;;7.72;2.28;;;12.70;99.90;;;;;;5344879;26;20313;-68
2024/04/11 01:59:04;;;;;;;10.40;2.40;;;12.80;99.90;;;;;;5341634;26;20707;-67
2024/04/11 02:01:34;;;;;;;6.90;2.08;;;12.80;99.90;;;;;;5344628;26;20796;-68
2024/04/11 02:04:06;;;;;;;6.55;2.00;;;12.80;99.90;;;;;;5348859;26;20568;-68
2024/04/11 02:06:36;;;;;;;6.03;1.80;;;12.80;99.90;;;;;;5352481;26;20341;-68
2024/04/11 02:09:05;;;;;;;10.57;1.85;;;12.80;99.90;;;;;;5345987;26;20362;-68
2024/04/11 02:11:41;;;;;;;7.25;2.10;;;12.80;99.90;;;;;;5346055;26;20279;-68
2024/04/11 02:14:07;;;;;;;9.20;1.98;;;12.80;99.90;;;;;;5346168;26;21182;-67
2024/04/11 02:16:36;;;;;;;9.18;1.83;;;12.80;99.90;;;;;;5350478;26;20304;-68
2024/04/11 02:19:06;;;;;;;7.57;2.10;;;12.80;99.90;;;;;;5350146;26;20286;-68
2024/04/11 02:21:33;;;;;;;5.07;2.25;;;12.90;99.90;;;;;;5345591;26;20230;-68
2024/04/11 02:24:00;;;;;;;8.05;2.20;;;12.90;99.90;;;;;;5346300;26;20266;-67
2024/04/11 02:26:26;;;;;;;6.50;1.85;;;12.90;99.90;;;;;;5349747;26;20798;-68
2024/04/11 02:28:52;;;;;;;5.38;1.77;;;12.90;99.90;;;;;;5345039;26;20272;-69
2024/04/11 02:31:18;;;;;;;5.18;1.70;;;12.90;99.90;;;;;;5341061;26;20257;-68
2024/04/11 02:33:46;;;;;;;9.07;2.38;;;12.90;99.90;;;;;;5352142;26;20226;-69
2024/04/11 02:36:12;;;;;;;12.05;2.20;;;12.90;99.90;;;;;;5347559;26;20280;-68
2024/04/11 02:38:38;;;;;;;9.50;2.17;;;12.90;99.90;;;;;;5315784;26;20579;-69
2024/04/11 02:41:06;;;;;;;5.72;2.05;;;12.90;99.90;;;;;;5349400;26;20253;-69
2024/04/11 02:43:34;;;;;;;7.00;1.80;;;13.00;99.90;;;;;;5345549;26;20580;-68
2024/04/11 02:45:59;;;;;;;9.05;1.92;;;13.00;99.90;;;;;;5345098;26;20833;-68
2024/04/11 02:48:28;;;;;;;7.05;2.10;;;13.00;99.90;;;;;;5343918;26;20321;-68
2024/04/11 02:50:54;;;;;;;9.10;1.90;;;13.00;99.90;;;;;;5345583;26;20231;-68
2024/04/11 02:53:21;;;;;;;10.30;2.00;;;13.00;99.90;;;;;;5349216;26;20282;-68
2024/04/11 02:55:46;;;;;;;7.70;2.28;;;13.00;99.90;;;;;;5350056;26;20722;-69
2024/04/11 02:58:12;;;;;;;11.27;2.53;;;13.10;99.90;;;;;;5344478;26;20278;-68
2024/04/11 03:00:38;;;;;;;6.70;2.10;;;13.00;99.90;;;;;;5353821;26;20239;-70
2024/04/11 03:03:03;;;;;;;12.48;2.45;;;13.00;99.90;;;;;;5401431;26;20253;-68
2024/04/11 03:05:29;;;;;;;10.90;2.17;;;13.10;99.90;;;;;;5343693;26;20595;-68
2024/04/11 03:07:55;;;;;;;9.48;2.33;;;13.10;99.90;;;;;;5351084;26;20445;-68
2024/04/11 03:10:20;;;;;;;8.85;2.30;;;13.10;99.90;;;;;;5347784;26;20339;-67
2024/04/11 03:12:46;;;;;;;9.18;2.25;;;13.10;99.90;;;;;;5343947;26;20347;-69
2024/04/11 03:15:12;;;;;;;10.63;2.40;;;13.10;99.90;;;;;;5349250;26;20241;-68
2024/04/11 03:17:38;;;;;;;7.72;2.25;;;13.10;99.90;;;;;;5347455;26;20264;-68
2024/04/11 03:20:04;;;;;;;11.25;2.40;;;13.10;99.90;;;;;;5407265;26;20230;-68
2024/04/11 03:22:30;;;;;;;7.38;2.08;;;13.10;99.90;;;;;;5351624;26;20226;-69
2024/04/11 03:24:56;;;;;;;10.35;2.50;;;13.10;99.90;;;;;;5352208;26;20562;-69
2024/04/11 03:27:22;;;;;;;8.82;2.63;;;13.10;99.90;;;;;;5348460;26;20281;-67
2024/04/11 03:29:49;;;;;;;6.90;2.17;;;13.10;99.90;;;;;;5344353;26;20574;-69
2024/04/11 03:32:15;;;;;;;9.13;2.40;;;13.10;99.90;;;;;;5352348;26;20234;-69
2024/04/11 03:34:41;;;;;;;9.15;2.53;;;13.10;99.90;;;;;;5347444;26;20251;-67
2024/04/11 03:37:07;;;;;;;9.80;2.40;;;13.10;99.90;;;;;;5341727;26;20285;-68
2024/04/11 03:39:33;;;;;;;11.13;2.35;;;13.20;99.90;;;;;;5347990;26;20234;-67
2024/04/11 03:41:59;;;;;;;9.45;2.33;;;13.20;99.90;;;;;;5343931;26;20339;-67
2024/04/11 03:44:26;;;;;;;6.65;2.22;;;13.20;99.90;;;;;;5345840;26;21834;-67
2024/04/11 03:46:52;;;;;;;8.70;2.50;;;13.20;99.90;;;;;;5350658;26;20272;-69
2024/04/11 03:49:24;;;;;;;7.30;2.78;;;13.20;99.90;;;;;;5347644;26;20233;-68
2024/04/11 03:51:53;;;;;;;9.77;2.40;;;13.20;99.90;;;;;;5340228;26;20281;-69
2024/04/11 03:54:18;;;;;;;11.70;2.42;;;13.20;99.90;;;;;;5342534;26;20254;-69
2024/04/11 03:56:44;;;;;;;6.93;2.28;;;13.20;99.90;;;;;;5348839;26;20276;-69
2024/04/11 03:59:10;;;;;;;6.50;2.40;;;13.20;99.90;;;;;;5344160;26;20226;-68
2024/04/11 04:01:36;;;;;;;12.35;2.53;;;13.20;99.90;;;;;;5342975;26;20292;-67
2024/04/11 04:04:03;;;;;;;7.97;2.63;;;13.20;99.90;;;;;;5346101;26;20242;-69
2024/04/11 04:06:30;;;;;;;8.48;2.55;;;13.20;99.90;;;;;;5344674;26;20338;-68
2024/04/11 04:08:57;;;;;;;11.10;2.50;;;13.20;99.90;;;;;;5343495;26;20572;-68
2024/04/11 04:11:22;;;;;;;8.07;2.47;;;13.20;99.90;;;;;;5345263;26;20338;-68
2024/04/11 04:13:50;;;;;;;9.63;2.55;;;13.20;99.90;;;;;;5344438;26;20649;-69
2024/04/11 04:16:19;;;;;;;8.68;2.78;;;13.20;99.90;;;;;;5343913;26;20287;-69
2024/04/11 04:18:46;;;;;;;8.48;2.33;;;13.20;99.90;;;;;;5341256;26;20234;-68
2024/04/11 04:21:13;;;;;;;12.05;2.42;;;13.20;99.90;;;;;;5350278;26;20607;-68
2024/04/11 04:23:43;;;;;;;9.05;2.50;;;13.20;99.90;;;;;;5342129;26;20342;-68
2024/04/11 04:26:14;;;;;;;7.45;2.63;;;13.20;99.90;;;;;;5343905;26;20290;-68
2024/04/11 04:28:41;;;;;;;7.85;2.83;;;13.20;99.90;;;;;;5346886;26;20233;-68
2024/04/11 04:31:20;;;;;;;9.65;2.70;;;13.10;99.90;;;;;;5361186;26;20242;-68
2024/04/11 04:33:52;;;;;;;9.85;2.85;;;13.10;99.90;;;;;;5350770;26;20234;-69
2024/04/11 04:36:20;;;;;;;10.82;2.67;;;13.10;99.90;;;;;;5345047;26;20240;-69
2024/04/11 04:38:47;;;;;;;6.63;2.50;;;13.10;99.90;;;;;;5339920;26;20234;-68
2024/04/11 04:41:13;;;;;;;10.80;3.05;;;13.00;99.90;;;;;;5344921;26;20230;-66
2024/04/11 04:43:41;;;;;;;11.02;3.13;;;13.00;99.90;;;;;;5344571;26;20319;-66
2024/04/11 04:46:06;;;;;;;13.70;3.08;;;12.90;99.90;;;;;;5347084;26;20238;-67
2024/04/11 04:48:32;;;;;;;10.80;3.40;;;12.90;99.90;;;;;;5349073;26;20383;-67
2024/04/11 04:51:01;;;;;;;9.02;2.70;;;12.80;99.90;;;;;;5351648;26;20316;-68
2024/04/11 04:53:27;;;;;;;15.82;3.42;;;12.70;99.90;;;;;;5349182;26;20263;-68
2024/04/11 04:55:53;;;;;;;10.88;3.10;;;12.70;99.90;;;;;;5349485;26;20234;-67
2024/04/11 04:58:20;;;;;;;14.02;3.17;;;12.60;99.90;;;;;;5349745;26;20241;-68
2024/04/11 05:00:46;;;;;;;9.75;3.55;;;12.60;99.90;;;;;;5348356;26;20245;-67
2024/04/11 05:03:12;;;;;;;11.05;2.80;;;12.50;99.90;;;;;;5350973;26;20286;-67
2024/04/11 05:05:38;;;;;;;8.88;3.08;;;12.50;99.90;;;;;;5349022;26;20707;-68
2024/04/11 05:08:07;;;;;;;6.75;2.88;;;12.50;99.90;;;;;;5353476;26;20234;-67
2024/04/11 05:10:34;;;;;;;6.13;2.47;;;12.40;99.90;;;;;;5355559;26;20234;-68
2024/04/11 05:13:01;;;;;;;10.65;3.05;;;12.40;99.90;;;;;;5351016;26;20225;-68
2024/04/11 05:15:28;;;;;;;11.23;3.08;;;12.40;99.90;;;;;;5350433;26;20241;-68
2024/04/11 05:17:55;;;;;;;11.35;3.28;;;12.30;99.90;;;;;;5353906;26;20631;-67
2024/04/11 05:20:27;;;;;;;12.05;3.42;;;12.30;99.90;;;;;;5348347;26;20229;-68
2024/04/11 05:22:56;;;;;;;9.35;3.25;;;12.30;99.90;;;;;;5344781;26;20241;-67
2024/04/11 05:25:22;;;;;;;12.52;3.13;;;12.20;99.90;;;;;;5346875;26;20340;-66
2024/04/11 05:27:48;;;;;;;10.05;3.03;;;12.20;99.90;;;;;;5352603;26;20280;-68
2024/04/11 05:30:14;;;;;;;12.35;3.28;;;12.20;99.90;;;;;;5349670;26;20631;-66
2024/04/11 05:32:44;;;;;;;9.75;3.50;;;12.20;99.90;;;;;;5357352;26;20227;-67
2024/04/11 05:35:10;;;;;;;8.95;3.65;;;12.10;99.90;;;;;;5353302;26;20263;-68
2024/04/11 05:37:39;;;;;;;11.98;3.70;;;12.10;99.90;;;;;;5348750;26;20237;-68
2024/04/11 05:40:06;;;;;;;16.15;4.38;;;12.10;99.90;;;;;;5408458;26;20238;-67
2024/04/11 05:42:33;;;;;;;13.32;3.70;;;12.10;99.90;;;;;;5354733;26;20733;-68
2024/04/11 05:45:00;;;;;;;9.88;3.50;;;12.10;99.90;;;;;;5352396;26;20265;-67
2024/04/11 05:47:25;;;;;;;12.05;3.80;;;12.10;99.90;;;;;;5348428;26;20288;-66
2024/04/11 05:49:52;;;;;;;8.80;3.47;;;12.20;99.90;;;;;;5352734;26;20234;-67
2024/04/11 05:52:18;;;;;;;9.73;3.60;;;12.10;99.90;;;;;;5349723;26;20326;-66
2024/04/11 05:54:44;;;;;;;9.40;3.40;;;12.10;99.90;;;;;;5347529;26;21256;-68
2024/04/11 05:57:10;;;;;;;13.75;3.80;;;12.20;99.90;;;;;;5347554;26;20231;-67
2024/04/11 05:59:36;;;;;;;12.00;3.65;;;12.20;99.90;;;;;;5408982;26;20549;-69
2024/04/11 06:02:03;;;;;;;8.05;3.75;;;12.20;99.90;;;;;;5409690;26;20226;-66
2024/04/11 06:04:29;;;;;;;9.25;4.15;;;12.20;99.90;;;;;;5354628;26;20637;-68
2024/04/11 06:06:55;;;;;;;10.80;3.90;;;12.20;99.90;;;;;;5346556;26;20234;-68
2024/04/11 06:09:21;;;;;;;10.63;4.20;;;12.20;99.90;;;;;;5350154;26;20233;-67
2024/04/11 06:11:46;;;;;;;10.23;4.15;;;12.20;99.90;;;;;;5351754;26;20811;-67
2024/04/11 06:14:13;;;;;;;10.00;3.67;;;12.30;99.90;;;;;;5343964;26;20339;-70
2024/04/11 06:16:39;;;;;;;11.32;4.30;;;12.30;99.90;;;;;;5350472;26;21263;-68
2024/04/11 06:19:06;;;;;;;14.50;4.50;;;12.30;99.90;;;;;;5352577;26;21615;-66
2024/04/11 06:21:36;;;;;;;16.77;4.20;;;12.40;99.90;;;;;;5350630;26;20272;-68
2024/04/11 06:24:05;;;;;;;14.15;4.80;;;12.30;99.90;;;;;;5401852;26;20845;-67
2024/04/11 06:26:31;;;;;;;13.45;4.63;;;12.40;99.90;;;;;;5403060;26;20260;-70
2024/04/11 06:28:56;;;;;;;9.70;4.35;;;12.40;99.90;;;;;;5348607;26;20234;-68
2024/04/11 06:31:28;;;;;;;10.18;4.85;;;12.40;99.90;;;;;;5351525;26;20237;-70
2024/04/11 06:33:54;;;;;;;14.85;4.97;;;12.40;99.90;;;;;;5348998;26;20231;-68
2024/04/11 06:36:20;;;;;;;15.00;5.10;;;12.40;99.90;;;;;;5350843;26;20242;-67
2024/04/11 06:38:48;;;;;;;13.48;5.07;;;12.50;99.90;;;;;;5346253;26;20277;-69
2024/04/11 06:41:22;;;;;;;11.52;4.53;;;12.50;99.90;;;;;;5349413;26;20694;-66
2024/04/11 06:43:51;;;;;;;12.43;5.20;;;12.60;99.90;;;;;;5342645;26;20272;-68
2024/04/11 06:46:21;;;;;;;13.57;4.85;;;12.60;99.90;;;;;;5348976;26;20237;-66
2024/04/11 06:48:47;;;;;;;10.68;4.70;;;12.60;99.90;;;;;;5405865;26;20752;-68
2024/04/11 06:51:15;;;;;;;17.30;4.80;;;12.60;99.90;;;;;;5409715;26;20244;-67
2024/04/11 06:53:45;;;;;;;11.15;4.88;;;12.70;99.90;;;;;;5348050;26;20351;-67
2024/04/11 06:56:11;;;;;;;13.25;5.35;;;12.70;99.90;;;;;;5352276;26;20334;-67
2024/04/11 06:58:40;;;;;;;11.57;5.22;;;12.70;99.90;;;;;;5404975;26;20673;-67
2024/04/11 07:01:09;;;;;;;13.75;5.80;;;12.70;99.90;;;;;;5344761;26;20234;-68
2024/04/11 07:03:39;;;;;;;15.20;5.93;;;12.80;99.90;;;;;;5351151;26;20239;-67
2024/04/11 07:08:47;;;;;;;11.98;5.95;;;12.80;99.90;;;;;;5408544;26;20334;-67
2024/04/11 07:11:19;;;;;;;9.32;5.35;;;12.70;99.90;;;;;;5348521;26;20333;-67
2024/04/11 07:13:53;;;;;;;15.35;5.88;;;12.70;99.90;;;;;;5352144;26;20232;-66
2024/04/11 07:16:25;;;;;;;14.73;6.15;;;12.70;99.90;;;;;;5353939;26;20740;-70
2024/04/11 07:18:55;;;;;;;12.40;6.00;;;12.70;99.90;;;;;;5362436;26;20242;-67
2024/04/11 07:21:30;;;;;;;15.38;6.35;;;12.70;99.90;;;;;;5354618;26;20226;-67
2024/04/11 07:24:00;;;;;;;19.30;6.32;;;12.70;99.90;;;;;;5353131;26;20234;-68
2024/04/11 07:26:30;;;;;;;14.27;6.65;;;12.70;99.90;;;;;;5346878;26;20639;-67
2024/04/11 07:28:59;;;;;;;16.92;7.63;;;12.70;99.90;;;;;;5356219;26;20230;-67
2024/04/11 07:31:26;;;;;;;15.30;6.88;;;12.70;99.90;;;;;;5346716;26;20241;-68
2024/04/11 07:33:51;;;;;;;16.95;7.40;;;12.80;99.90;;;;;;5347882;26;20283;-66
2024/04/11 07:36:21;;;;;;;16.77;7.25;;;12.80;99.90;;;;;;5350145;26;20624;-67
2024/04/11 07:38:48;;;;;;;17.88;7.97;;;12.80;99.90;;;;;;5351187;26;20239;-68
2024/04/11 07:41:16;;;;;;;23.77;7.90;;;12.80;99.90;;;;;;5349956;26;20584;-67
2024/04/11 07:43:53;;;;;;;16.25;8.00;;;12.80;99.90;;;;;;5348838;26;20226;-68
2024/04/11 07:46:22;;;;;;;15.18;8.45;;;12.90;99.90;;;;;;5407283;26;20249;-68
2024/04/11 07:48:48;;;;;;;14.93;8.02;;;12.90;99.90;;;;;;5354655;26;20312;-67
2024/04/11 07:51:16;;;;;;;20.00;9.38;;;12.90;99.90;;;;;;5351594;26;20280;-69
2024/04/11 07:53:46;;;;;;;15.75;9.07;;;12.90;99.90;;;;;;5349224;26;20898;-69
2024/04/11 07:56:19;;;;;;;15.52;9.05;;;12.90;99.90;;;;;;5353777;26;20242;-68
2024/04/11 07:58:58;;;;;;;17.85;9.63;;;12.90;99.90;;;;;;5349775;26;20268;-67
2024/04/11 08:01:36;;;;;;;18.00;9.80;;;12.90;99.90;;;;;;5346307;26;20250;-67
2024/04/11 08:04:06;;;;;;;18.63;9.77;;;13.00;99.90;;;;;;5348823;26;20722;-67
2024/04/11 08:06:34;;;;;;;16.95;9.10;;;12.90;99.90;;;;;;5346985;26;20246;-68
2024/04/11 08:09:00;;;;;;;16.58;9.45;;;13.00;99.90;;;;;;5352390;26;20297;-68
2024/04/11 08:11:30;;;;;;;13.23;8.73;;;13.00;99.90;;;;;;5376588;26;20839;-67
2024/04/11 08:13:59;;;;;;;18.45;9.63;;;13.10;99.90;;;;;;5349014;26;20338;-67
2024/04/11 08:16:26;;;;;;;17.42;9.38;;;13.10;99.90;;;;;;5348521;26;20419;-68
2024/04/11 08:18:52;;;;;;;15.38;10.32;;;13.20;99.90;;;;;;5352298;26;20268;-69
2024/04/11 08:21:18;;;;;;;14.85;9.45;;;13.20;99.90;;;;;;5348328;26;20234;-67
2024/04/11 08:23:45;;;;;;;17.17;9.55;;;13.30;99.90;;;;;;5343769;26;20242;-69
2024/04/11 08:26:15;;;;;;;13.60;9.60;;;13.40;99.90;;;;;;5342690;26;20279;-68
2024/04/11 08:28:43;;;;;;;16.33;9.75;;;13.40;99.90;;;;;;5352231;26;20315;-67
2024/04/11 08:31:11;;;;;;;13.63;9.70;;;13.40;99.90;;;;;;5351707;26;20235;-68
2024/04/11 08:33:37;;;;;;;16.00;9.48;;;13.50;99.90;;;;;;5348402;26;21130;-67
2024/04/11 08:36:05;;;;;;;14.07;9.45;;;13.50;99.90;;;;;;5359131;26;20234;-67
2024/04/11 08:38:33;;;;;;;14.30;9.50;;;13.50;99.90;;;;;;5345250;26;20714;-68
2024/04/11 08:41:12;;;;;;;15.50;9.88;;;13.60;99.90;;;;;;5349359;26;20257;-67
2024/04/11 08:43:39;;;;;;;14.95;10.13;;;13.60;99.90;;;;;;5351606;26;20287;-68
2024/04/11 08:46:10;;;;;;;10.55;8.93;;;13.70;99.90;;;;;;5351308;26;20727;-67
2024/04/11 08:48:37;;;;;;;13.07;9.27;;;13.70;99.90;;;;;;5350828;26;20238;-69
2024/04/11 08:51:20;;;;;;;13.30;8.93;;;13.80;99.90;;;;;;5348137;26;20233;-68
2024/04/11 08:53:52;;;;;;;13.48;9.32;;;13.90;99.90;;;;;;5346677;26;20245;-70
2024/04/11 08:56:18;;;;;;;10.70;8.43;;;13.90;99.90;;;;;;5348634;26;20235;-67
2024/04/11 08:58:45;;;;;;;13.13;8.70;;;14.00;99.90;;;;;;5349214;26;20322;-68
2024/04/11 09:01:14;;;;;;;12.73;8.57;;;14.00;99.90;;;;;;5347606;26;20277;-69
2024/04/11 09:03:40;;;;;;;12.43;8.60;;;14.00;99.90;;;;;;5342627;26;20265;-68
2024/04/11 09:06:10;;;;;;;13.20;8.75;;;14.00;99.90;;;;;;5344454;26;20237;-68
2024/04/11 09:08:36;;;;;;;13.45;8.85;;;14.10;99.90;;;;;;5332401;26;20328;-67
2024/04/11 09:11:04;;;;;;;10.85;8.32;;;14.10;99.90;;;;;;5346337;26;20351;-67
2024/04/11 09:13:30;;;;;;;13.70;8.90;;;14.10;99.90;;;;;;5350078;26;20230;-67
2024/04/11 09:15:59;;;;;;;10.88;8.10;;;14.10;99.90;;;;;;5348465;26;20352;-67
2024/04/11 09:18:27;;;;;;;14.75;8.90;;;14.10;99.90;;;;;;5344241;26;20241;-67
2024/04/11 09:21:06;;;;;;;13.93;8.75;;;14.10;99.90;;;;;;5350371;26;20319;-68
2024/04/11 09:23:46;;;;;;;12.25;8.23;;;14.20;99.90;;;;;;5345298;26;20290;-67
2024/04/11 09:26:13;;;;;;;11.40;8.52;;;14.20;99.90;;;;;;5350087;26;20325;-66
2024/04/11 09:28:39;;;;;;;10.27;8.35;;;14.30;99.90;;;;;;5345335;26;20373;-66
2024/04/11 09:31:07;;;;;;;10.30;8.20;;;14.30;99.90;;;;;;5347132;26;20229;-68
2024/04/11 09:33:35;;;;;;;14.00;8.98;;;14.40;99.90;;;;;;5346741;26;20234;-65
2024/04/11 09:36:07;;;;;;;11.80;8.88;;;14.40;99.90;;;;;;5342653;26;20760;-67
2024/04/11 09:38:36;;;;;;;12.68;8.43;;;14.50;99.90;;;;;;5344381;26;20702;-67
2024/04/11 09:41:04;;;;;;;10.82;9.27;;;14.50;99.90;;;;;;5344395;26;20280;-68
2024/04/11 09:43:37;;;;;;;10.73;8.82;;;14.50;99.90;;;;;;5347122;26;20246;-69
2024/04/11 09:46:06;;;;;;;12.23;9.02;;;14.60;99.90;;;;;;5346558;26;20233;-68
2024/04/11 09:48:38;;;;;;;10.27;8.77;;;14.60;99.90;;;;;;5346757;26;20285;-67
2024/04/11 09:51:09;;;;;;;14.80;11.15;;;14.70;99.90;;;;;;5353352;26;20281;-68
2024/04/11 09:53:36;;;;;;;12.02;9.02;;;14.80;99.90;;;;;;5351423;26;20652;-67
2024/04/11 09:56:05;;;;;;;12.02;8.35;;;14.90;99.90;;;;;;5350489;26;20234;-68
2024/04/11 09:58:38;;;;;;;11.93;9.38;;;14.90;99.90;;;;;;5348785;26;20789;-67
2024/04/11 10:01:14;;;;;;;9.63;8.27;;;14.90;99.90;;;;;;5351121;26;20264;-70
2024/04/11 10:03:40;;;;;;;12.35;8.77;;;15.00;99.90;;;;;;5348192;26;20250;-69
2024/04/11 10:06:13;;;;;;;10.65;9.05;;;15.00;99.90;;;;;;5345255;26;20309;-67
2024/04/11 10:08:42;;;;;;;11.13;9.18;;;15.00;99.90;;;;;;5349863;26;20234;-69
2024/04/11 10:11:12;;;;;;;10.73;8.90;;;15.00;99.90;;;;;;5362302;26;20257;-66
2024/04/11 10:13:41;;;;;;;9.52;8.00;;;15.00;99.90;;;;;;5350343;26;20235;-69
2024/04/11 10:16:28;;;;;;;9.95;8.52;;;15.10;99.90;;;;;;5351828;26;20668;-67
2024/04/11 10:19:04;;;;;;;10.82;9.18;;;15.10;99.90;;;;;;5352185;26;20243;-66
2024/04/11 10:21:38;;;;;;;10.98;8.90;;;15.10;99.90;;;;;;5352549;26;20242;-69
2024/04/11 10:24:34;;;;;;;9.70;7.90;;;15.20;99.90;;;;;;5379502;26;20354;-68
2024/04/11 10:27:11;;;;;;;11.60;8.43;;;15.20;99.90;;;;;;5363684;26;20290;-68
2024/04/11 10:29:43;;;;;;;9.07;7.53;;;15.30;99.90;;;;;;5350878;26;20250;-66
2024/04/11 10:32:22;;;;;;;11.35;7.70;;;15.30;99.90;;;;;;5349173;26;20281;-68
2024/04/11 10:34:56;;;;;;;10.30;8.20;;;15.20;99.90;;;;;;5354372;26;20237;-69
2024/04/11 10:37:26;;;;;;;10.98;7.88;;;15.20;99.90;;;;;;5349874;26;20238;-68
2024/04/11 10:39:57;;;;;;;9.88;8.35;;;15.20;99.90;;;;;;5349083;26;20848;-68
2024/04/11 10:42:43;;;;;;;11.57;8.80;;;15.20;99.90;;;;;;5352580;26;20234;-68
2024/04/11 10:45:12;;;;;;;10.10;8.55;;;15.20;99.90;;;;;;5351085;26;20280;-68
2024/04/11 10:47:41;;;;;;;9.70;7.88;;;15.30;99.90;;;;;;5350227;26;20286;-69
2024/04/11 10:50:13;;;;;;;10.50;8.23;;;15.30;99.90;;;;;;5412111;26;20320;-67
2024/04/11 10:52:39;;;;;;;12.25;8.43;;;15.40;99.90;;;;;;5349793;26;20229;-67
2024/04/11 10:55:22;;;;;;;10.75;8.25;;;15.50;99.90;;;;;;5357274;26;20238;-68
2024/04/11 10:58:00;;;;;;;9.50;8.02;;;15.50;99.90;;;;;;5350095;26;20293;-68
2024/04/11 11:01:07;;;;;;;13.63;8.25;;;15.60;99.90;;;;;;5378225;26;20230;-69
2024/04/11 11:03:32;;;;;;;9.70;8.45;;;15.60;99.90;;;;;;5406876;26;20342;-68
2024/04/11 11:05:58;;;;;;;10.57;8.50;;;15.70;99.90;;;;;;5347209;26;20234;-68
2024/04/11 11:08:27;;;;;;;13.38;9.30;;;15.80;99.90;;;;;;5349679;26;20230;-67
2024/04/11 11:10:54;;;;;;;12.75;8.50;;;15.80;99.90;;;;;;5345714;26;20568;-67
2024/04/11 11:13:20;;;;;;;10.30;8.70;;;15.90;99.90;;;;;;5353953;26;20353;-68
2024/04/11 11:15:46;;;;;;;11.57;8.68;;;16.00;99.90;;;;;;5405551;26;20628;-68
2024/04/11 11:18:12;;;;;;;13.45;9.15;;;16.10;99.90;;;;;;5348445;26;20237;-67
2024/04/11 11:20:44;;;;;;;11.35;9.00;;;16.20;99.90;;;;;;5405476;26;20965;-66
2024/04/11 11:23:13;;;;;;;12.30;9.18;;;16.20;99.90;;;;;;5342139;26;21047;-67
2024/04/11 11:25:41;;;;;;;13.85;9.43;;;16.30;99.90;;;;;;5350543;26;20310;-67
2024/04/11 11:28:12;;;;;;;11.98;8.55;;;16.40;99.90;;;;;;5349366;26;20234;-67
2024/04/11 11:30:39;;;;;;;11.95;9.13;;;16.40;99.90;;;;;;5353634;26;20637;-68
2024/04/11 11:33:07;;;;;;;12.32;8.93;;;16.40;99.90;;;;;;5352676;26;20271;-68
2024/04/11 11:35:33;;;;;;;12.35;8.85;;;16.50;99.90;;;;;;5353126;26;20334;-69
2024/04/11 11:37:59;;;;;;;13.40;8.95;;;16.50;99.90;;;;;;5348208;26;20235;-67
2024/04/11 11:40:53;;;;;;;14.73;9.43;;;16.50;99.90;;;;;;5351110;26;20260;-69
2024/04/11 11:43:16;;;;;;;16.20;8.65;;;16.50;99.90;;;;;;5354950;26;20554;-69
2024/04/11 11:46:26;;;;;;;12.32;8.55;;;16.50;99.90;;;;;;5350021;26;20237;-67
2024/04/11 11:48:35;;;;;;;15.88;9.10;;;16.50;99.90;;;;;;5355359;26;21916;-68
2024/04/11 11:51:05;;;;;;;14.50;9.18;;;16.40;99.90;;;;;;5350044;26;20479;-67
2024/04/11 11:53:34;;;;;;;14.25;9.48;;;16.40;99.90;;;;;;5349487;26;20230;-67
2024/04/11 11:56:05;;;;;;;15.20;8.77;;;16.30;99.90;;;;;;5341093;26;20243;-68
2024/04/11 11:58:34;;;;;;;13.73;8.85;;;16.30;99.90;;;;;;5347828;26;20226;-68
2024/04/11 12:01:02;;;;;;;15.13;8.68;;;16.20;99.90;;;;;;5346181;26;20231;-68
2024/04/11 12:03:31;;;;;;;17.17;9.25;;;16.20;99.90;;;;;;5349215;26;20242;-67
2024/04/11 12:05:59;;;;;;;15.13;8.82;;;16.20;99.90;;;;;;5344337;26;20281;-67
2024/04/11 12:08:25;;;;;;;13.65;8.63;;;16.20;99.90;;;;;;5351974;26;20577;-68
2024/04/11 12:13:35;;;;;;;15.60;8.90;;;16.40;99.90;;;;;;5349114;26;20270;-67
2024/04/11 12:16:04;;;;;;;13.63;8.50;;;16.40;99.90;;;;;;5319296;26;20240;-69
2024/04/11 12:18:30;;;;;;;15.77;8.63;;;16.60;99.90;;;;;;5349930;26;20233;-68
2024/04/11 12:20:57;;;;;;;15.63;8.23;;;16.60;99.90;;;;;;5344735;26;20339;-66
2024/04/11 12:23:23;;;;;;;14.38;7.85;;;16.70;99.90;;;;;;5346653;26;20372;-67
2024/04/11 12:25:50;;;;;;;18.13;8.18;;;16.80;99.90;;;;;;5349161;26;20235;-67
2024/04/11 12:28:19;;;;;;;13.25;7.53;;;16.90;99.90;;;;;;5350367;26;20268;-69
2024/04/11 12:30:46;;;;;;;13.27;6.45;;;17.10;99.90;;;;;;5341527;26;20636;-70
2024/04/11 12:33:12;;;;;;;13.68;7.03;;;17.30;99.90;;;;;;5351642;26;20336;-69
2024/04/11 12:35:54;;;;;;;12.00;6.38;;;17.50;99.90;;;;;;5352380;26;20565;-68
2024/04/11 12:38:21;;;;;;;13.65;6.13;;;17.70;99.90;;;;;;5351728;26;20225;-67
2024/04/11 12:40:50;;;;;;;8.68;5.88;;;17.80;99.90;;;;;;5349553;26;20255;-67
2024/04/11 12:43:19;;;;;;;11.02;6.07;;;17.90;99.90;;;;;;5354255;26;20261;-68
2024/04/11 12:45:52;;;;;;;9.85;5.85;;;18.00;99.90;;;;;;5349564;26;20285;-68
2024/04/11 12:48:34;;;;;;;10.32;5.93;;;18.00;99.90;;;;;;5356430;26;20248;-66
2024/04/11 12:51:00;;;;;;;10.65;5.32;;;18.00;99.90;;;;;;5347402;26;20237;-67
2024/04/11 12:53:28;;;;;;;10.15;5.90;;;17.90;99.90;;;;;;5349395;26;20261;-68